sensor_id;sensor_type;location;lat;lon;timestamp;P1;durP1;ratioP1;P2;durP2;ratioP2
30533;SDS011;17318;52.390;9.754;2023-03-01T00:00:14;11.57;;;5.55;;
30533;SDS011;17318;52.390;9.754;2023-03-01T00:02:40;13.55;;;5.75;;
30533;SDS011;17318;52.390;9.754;2023-03-01T00:05:06;12.55;;;5.63;;
30533;SDS011;17318;52.390;9.754;2023-03-01T00:07:32;11.93;;;5.55;;
30533;SDS011;17318;52.390;9.754;2023-03-01T00:09:58;17.20;;;6.50;;
30533;SDS011;17318;52.390;9.754;2023-03-01T00:12:24;16.23;;;6.75;;
30533;SDS011;17318;52.390;9.754;2023-03-01T00:14:49;12.07;;;5.95;;
30533;SDS011;17318;52.390;9.754;2023-03-01T00:17:15;13.55;;;5.97;;
30533;SDS011;17318;52.390;9.754;2023-03-01T00:19:41;13.73;;;6.18;;
30533;SDS011;17318;52.390;9.754;2023-03-01T00:22:07;12.57;;;6.30;;
30533;SDS011;17318;52.390;9.754;2023-03-01T00:24:33;16.13;;;6.43;;
30533;SDS011;17318;52.390;9.754;2023-03-01T00:26:58;13.80;;;5.57;;
30533;SDS011;17318;52.390;9.754;2023-03-01T00:29:24;14.20;;;6.57;;
30533;SDS011;17318;52.390;9.754;2023-03-01T00:31:50;15.75;;;6.20;;
30533;SDS011;17318;52.390;9.754;2023-03-01T00:34:16;13.95;;;6.65;;
30533;SDS011;17318;52.390;9.754;2023-03-01T00:36:42;16.77;;;7.32;;
30533;SDS011;17318;52.390;9.754;2023-03-01T00:39:10;14.93;;;7.10;;
30533;SDS011;17318;52.390;9.754;2023-03-01T00:41:37;17.67;;;7.47;;
30533;SDS011;17318;52.390;9.754;2023-03-01T00:44:05;14.63;;;6.85;;
30533;SDS011;17318;52.390;9.754;2023-03-01T00:46:30;15.35;;;6.70;;
30533;SDS011;17318;52.390;9.754;2023-03-01T00:48:56;16.55;;;7.45;;
30533;SDS011;17318;52.390;9.754;2023-03-01T00:51:23;16.83;;;6.95;;
30533;SDS011;17318;52.390;9.754;2023-03-01T00:53:51;13.65;;;7.07;;
30533;SDS011;17318;52.390;9.754;2023-03-01T00:56:18;19.35;;;7.15;;
30533;SDS011;17318;52.390;9.754;2023-03-01T00:58:44;18.48;;;7.03;;
30533;SDS011;17318;52.390;9.754;2023-03-01T01:01:31;14.70;;;7.32;;
30533;SDS011;17318;52.390;9.754;2023-03-01T01:03:58;13.90;;;6.97;;
30533;SDS011;17318;52.390;9.754;2023-03-01T01:06:36;14.40;;;6.68;;
30533;SDS011;17318;52.390;9.754;2023-03-01T01:09:04;17.75;;;7.65;;
30533;SDS011;17318;52.390;9.754;2023-03-01T01:11:31;12.35;;;6.57;;
30533;SDS011;17318;52.390;9.754;2023-03-01T01:13:58;15.98;;;7.07;;
30533;SDS011;17318;52.390;9.754;2023-03-01T01:16:24;14.48;;;6.50;;
30533;SDS011;17318;52.390;9.754;2023-03-01T01:18:51;16.65;;;6.90;;
30533;SDS011;17318;52.390;9.754;2023-03-01T01:21:18;16.92;;;7.22;;
30533;SDS011;17318;52.390;9.754;2023-03-01T01:23:47;12.68;;;6.63;;
30533;SDS011;17318;52.390;9.754;2023-03-01T01:26:15;13.55;;;5.85;;
30533;SDS011;17318;52.390;9.754;2023-03-01T01:28:43;12.38;;;5.60;;
30533;SDS011;17318;52.390;9.754;2023-03-01T01:31:09;11.75;;;5.60;;
30533;SDS011;17318;52.390;9.754;2023-03-01T01:33:35;19.25;;;6.60;;
30533;SDS011;17318;52.390;9.754;2023-03-01T01:36:02;14.20;;;6.28;;
30533;SDS011;17318;52.390;9.754;2023-03-01T01:38:28;17.52;;;6.70;;
30533;SDS011;17318;52.390;9.754;2023-03-01T01:40:54;11.65;;;5.82;;
30533;SDS011;17318;52.390;9.754;2023-03-01T01:43:22;16.40;;;5.53;;
30533;SDS011;17318;52.390;9.754;2023-03-01T01:45:54;13.00;;;5.65;;
30533;SDS011;17318;52.390;9.754;2023-03-01T01:48:26;15.70;;;6.20;;
30533;SDS011;17318;52.390;9.754;2023-03-01T01:51:09;12.50;;;6.15;;
30533;SDS011;17318;52.390;9.754;2023-03-01T01:53:42;13.68;;;5.97;;
30533;SDS011;17318;52.390;9.754;2023-03-01T01:56:13;13.10;;;5.93;;
30533;SDS011;17318;52.390;9.754;2023-03-01T01:58:41;14.07;;;5.75;;
30533;SDS011;17318;52.390;9.754;2023-03-01T02:01:08;12.13;;;5.85;;
30533;SDS011;17318;52.390;9.754;2023-03-01T02:03:34;13.43;;;6.13;;
30533;SDS011;17318;52.390;9.754;2023-03-01T02:06:11;14.63;;;5.30;;
30533;SDS011;17318;52.390;9.754;2023-03-01T02:08:54;15.65;;;6.53;;
30533;SDS011;17318;52.390;9.754;2023-03-01T02:11:22;14.55;;;5.93;;
30533;SDS011;17318;52.390;9.754;2023-03-01T02:13:49;14.73;;;6.03;;
30533;SDS011;17318;52.390;9.754;2023-03-01T02:16:15;12.02;;;6.15;;
30533;SDS011;17318;52.390;9.754;2023-03-01T02:18:41;10.88;;;5.82;;
30533;SDS011;17318;52.390;9.754;2023-03-01T02:23:55;12.48;;;5.72;;
30533;SDS011;17318;52.390;9.754;2023-03-01T02:26:28;13.93;;;6.43;;
30533;SDS011;17318;52.390;9.754;2023-03-01T02:28:56;11.55;;;5.72;;
30533;SDS011;17318;52.390;9.754;2023-03-01T02:31:22;12.00;;;6.38;;
30533;SDS011;17318;52.390;9.754;2023-03-01T02:34:07;13.27;;;6.43;;
30533;SDS011;17318;52.390;9.754;2023-03-01T02:39:14;13.25;;;6.25;;
30533;SDS011;17318;52.390;9.754;2023-03-01T02:41:48;13.02;;;5.53;;
30533;SDS011;17318;52.390;9.754;2023-03-01T02:44:16;15.85;;;6.28;;
30533;SDS011;17318;52.390;9.754;2023-03-01T02:46:44;10.15;;;6.00;;
30533;SDS011;17318;52.390;9.754;2023-03-01T02:49:27;12.80;;;6.43;;
30533;SDS011;17318;52.390;9.754;2023-03-01T02:54:47;16.02;;;6.75;;
30533;SDS011;17318;52.390;9.754;2023-03-01T02:57:26;13.27;;;6.60;;
30533;SDS011;17318;52.390;9.754;2023-03-01T02:59:54;13.10;;;6.40;;
30533;SDS011;17318;52.390;9.754;2023-03-01T03:05:12;11.65;;;6.43;;
30533;SDS011;17318;52.390;9.754;2023-03-01T03:07:42;13.38;;;6.50;;
30533;SDS011;17318;52.390;9.754;2023-03-01T03:10:11;15.95;;;7.22;;
30533;SDS011;17318;52.390;9.754;2023-03-01T03:12:44;12.05;;;6.65;;
30533;SDS011;17318;52.390;9.754;2023-03-01T03:15:18;13.68;;;6.60;;
30533;SDS011;17318;52.390;9.754;2023-03-01T03:17:45;14.93;;;7.07;;
30533;SDS011;17318;52.390;9.754;2023-03-01T03:20:11;12.88;;;6.13;;
30533;SDS011;17318;52.390;9.754;2023-03-01T03:22:44;13.88;;;6.78;;
30533;SDS011;17318;52.390;9.754;2023-03-01T03:25:14;13.98;;;6.63;;
30533;SDS011;17318;52.390;9.754;2023-03-01T03:27:41;14.18;;;6.90;;
30533;SDS011;17318;52.390;9.754;2023-03-01T03:30:09;14.65;;;6.53;;
30533;SDS011;17318;52.390;9.754;2023-03-01T03:32:41;14.50;;;6.78;;
30533;SDS011;17318;52.390;9.754;2023-03-01T03:35:15;14.13;;;6.45;;
30533;SDS011;17318;52.390;9.754;2023-03-01T03:37:41;15.63;;;7.10;;
30533;SDS011;17318;52.390;9.754;2023-03-01T03:40:26;14.15;;;7.32;;
30533;SDS011;17318;52.390;9.754;2023-03-01T03:42:54;12.85;;;6.90;;
30533;SDS011;17318;52.390;9.754;2023-03-01T03:45:19;13.80;;;6.97;;
30533;SDS011;17318;52.390;9.754;2023-03-01T03:47:45;17.13;;;6.97;;
30533;SDS011;17318;52.390;9.754;2023-03-01T03:50:11;17.02;;;6.75;;
30533;SDS011;17318;52.390;9.754;2023-03-01T03:52:38;21.25;;;6.32;;
30533;SDS011;17318;52.390;9.754;2023-03-01T03:55:05;15.07;;;7.35;;
30533;SDS011;17318;52.390;9.754;2023-03-01T03:57:36;12.77;;;6.63;;
30533;SDS011;17318;52.390;9.754;2023-03-01T04:00:06;15.60;;;7.60;;
30533;SDS011;17318;52.390;9.754;2023-03-01T04:02:41;16.15;;;6.90;;
30533;SDS011;17318;52.390;9.754;2023-03-01T04:05:08;17.58;;;7.32;;
30533;SDS011;17318;52.390;9.754;2023-03-01T04:07:35;17.17;;;7.40;;
30533;SDS011;17318;52.390;9.754;2023-03-01T04:10:05;13.05;;;7.22;;
30533;SDS011;17318;52.390;9.754;2023-03-01T04:12:33;15.63;;;6.97;;
30533;SDS011;17318;52.390;9.754;2023-03-01T04:15:00;15.35;;;7.43;;
30533;SDS011;17318;52.390;9.754;2023-03-01T04:17:26;16.65;;;7.93;;
30533;SDS011;17318;52.390;9.754;2023-03-01T04:19:52;12.20;;;7.00;;
30533;SDS011;17318;52.390;9.754;2023-03-01T04:22:18;17.33;;;8.15;;
30533;SDS011;17318;52.390;9.754;2023-03-01T04:24:44;18.15;;;7.50;;
30533;SDS011;17318;52.390;9.754;2023-03-01T04:27:10;15.85;;;6.72;;
30533;SDS011;17318;52.390;9.754;2023-03-01T04:29:36;18.52;;;7.97;;
30533;SDS011;17318;52.390;9.754;2023-03-01T04:32:02;14.60;;;6.78;;
30533;SDS011;17318;52.390;9.754;2023-03-01T04:34:28;20.70;;;7.00;;
30533;SDS011;17318;52.390;9.754;2023-03-01T04:36:54;13.88;;;6.72;;
30533;SDS011;17318;52.390;9.754;2023-03-01T04:39:21;18.80;;;7.05;;
30533;SDS011;17318;52.390;9.754;2023-03-01T04:41:46;19.20;;;6.95;;
30533;SDS011;17318;52.390;9.754;2023-03-01T04:44:12;17.35;;;8.07;;
30533;SDS011;17318;52.390;9.754;2023-03-01T04:46:38;18.15;;;7.80;;
30533;SDS011;17318;52.390;9.754;2023-03-01T04:49:04;17.85;;;7.53;;
30533;SDS011;17318;52.390;9.754;2023-03-01T04:51:30;17.35;;;7.65;;
30533;SDS011;17318;52.390;9.754;2023-03-01T04:53:57;18.52;;;7.28;;
30533;SDS011;17318;52.390;9.754;2023-03-01T04:56:23;19.60;;;7.70;;
30533;SDS011;17318;52.390;9.754;2023-03-01T04:58:49;18.38;;;9.93;;
30533;SDS011;17318;52.390;9.754;2023-03-01T05:01:18;17.70;;;7.70;;
30533;SDS011;17318;52.390;9.754;2023-03-01T05:03:49;14.47;;;7.60;;
30533;SDS011;17318;52.390;9.754;2023-03-01T05:06:16;12.18;;;6.88;;
30533;SDS011;17318;52.390;9.754;2023-03-01T05:08:43;15.88;;;7.38;;
30533;SDS011;17318;52.390;9.754;2023-03-01T05:11:09;15.05;;;7.15;;
30533;SDS011;17318;52.390;9.754;2023-03-01T05:13:36;12.90;;;6.70;;
30533;SDS011;17318;52.390;9.754;2023-03-01T05:16:03;14.75;;;7.90;;
30533;SDS011;17318;52.390;9.754;2023-03-01T05:18:30;15.63;;;6.75;;
30533;SDS011;17318;52.390;9.754;2023-03-01T05:21:04;17.30;;;7.28;;
30533;SDS011;17318;52.390;9.754;2023-03-01T05:23:34;15.35;;;7.55;;
30533;SDS011;17318;52.390;9.754;2023-03-01T05:26:02;14.98;;;7.50;;
30533;SDS011;17318;52.390;9.754;2023-03-01T05:28:29;15.73;;;7.38;;
30533;SDS011;17318;52.390;9.754;2023-03-01T05:30:55;16.27;;;7.13;;
30533;SDS011;17318;52.390;9.754;2023-03-01T05:33:22;16.67;;;7.53;;
30533;SDS011;17318;52.390;9.754;2023-03-01T05:35:49;16.77;;;7.38;;
30533;SDS011;17318;52.390;9.754;2023-03-01T05:38:17;13.93;;;7.22;;
30533;SDS011;17318;52.390;9.754;2023-03-01T05:40:43;17.48;;;7.63;;
30533;SDS011;17318;52.390;9.754;2023-03-01T05:43:11;18.15;;;8.23;;
30533;SDS011;17318;52.390;9.754;2023-03-01T05:45:38;13.98;;;6.75;;
30533;SDS011;17318;52.390;9.754;2023-03-01T05:48:05;13.30;;;6.65;;
30533;SDS011;17318;52.390;9.754;2023-03-01T05:50:32;16.80;;;7.70;;
30533;SDS011;17318;52.390;9.754;2023-03-01T05:53:04;18.52;;;8.00;;
30533;SDS011;17318;52.390;9.754;2023-03-01T05:55:44;17.38;;;7.07;;
30533;SDS011;17318;52.390;9.754;2023-03-01T06:00:39;15.23;;;7.38;;
30533;SDS011;17318;52.390;9.754;2023-03-01T06:03:05;19.60;;;7.15;;
30533;SDS011;17318;52.390;9.754;2023-03-01T06:05:31;13.55;;;7.00;;
30533;SDS011;17318;52.390;9.754;2023-03-01T06:08:00;18.58;;;7.80;;
30533;SDS011;17318;52.390;9.754;2023-03-01T06:10:26;21.33;;;7.05;;
30533;SDS011;17318;52.390;9.754;2023-03-01T06:12:52;15.88;;;7.30;;
30533;SDS011;17318;52.390;9.754;2023-03-01T06:15:18;18.42;;;8.18;;
30533;SDS011;17318;52.390;9.754;2023-03-01T06:17:45;18.42;;;6.95;;
30533;SDS011;17318;52.390;9.754;2023-03-01T06:20:18;21.30;;;7.60;;
30533;SDS011;17318;52.390;9.754;2023-03-01T06:22:46;23.05;;;8.13;;
30533;SDS011;17318;52.390;9.754;2023-03-01T06:25:14;17.97;;;8.00;;
30533;SDS011;17318;52.390;9.754;2023-03-01T06:27:42;23.58;;;7.63;;
30533;SDS011;17318;52.390;9.754;2023-03-01T06:30:09;17.55;;;7.07;;
30533;SDS011;17318;52.390;9.754;2023-03-01T06:32:36;28.08;;;9.00;;
30533;SDS011;17318;52.390;9.754;2023-03-01T06:35:03;20.80;;;9.80;;
30533;SDS011;17318;52.390;9.754;2023-03-01T06:37:29;17.45;;;8.07;;
30533;SDS011;17318;52.390;9.754;2023-03-01T06:39:55;20.05;;;8.45;;
30533;SDS011;17318;52.390;9.754;2023-03-01T06:42:20;20.85;;;8.23;;
30533;SDS011;17318;52.390;9.754;2023-03-01T06:44:46;18.85;;;7.70;;
30533;SDS011;17318;52.390;9.754;2023-03-01T06:47:12;17.60;;;8.38;;
30533;SDS011;17318;52.390;9.754;2023-03-01T06:49:38;17.67;;;7.47;;
30533;SDS011;17318;52.390;9.754;2023-03-01T06:52:04;15.43;;;7.75;;
30533;SDS011;17318;52.390;9.754;2023-03-01T06:54:29;17.35;;;7.97;;
30533;SDS011;17318;52.390;9.754;2023-03-01T06:56:55;15.20;;;7.35;;
30533;SDS011;17318;52.390;9.754;2023-03-01T06:59:20;17.23;;;8.13;;
30533;SDS011;17318;52.390;9.754;2023-03-01T07:01:46;20.63;;;8.35;;
30533;SDS011;17318;52.390;9.754;2023-03-01T07:04:12;16.77;;;8.25;;
30533;SDS011;17318;52.390;9.754;2023-03-01T07:06:38;18.65;;;8.38;;
30533;SDS011;17318;52.390;9.754;2023-03-01T07:09:04;20.77;;;8.52;;
30533;SDS011;17318;52.390;9.754;2023-03-01T07:11:30;20.30;;;8.63;;
30533;SDS011;17318;52.390;9.754;2023-03-01T07:13:56;17.73;;;7.75;;
30533;SDS011;17318;52.390;9.754;2023-03-01T07:16:21;18.60;;;8.48;;
30533;SDS011;17318;52.390;9.754;2023-03-01T07:18:47;26.52;;;9.85;;
30533;SDS011;17318;52.390;9.754;2023-03-01T07:21:14;25.85;;;7.95;;
30533;SDS011;17318;52.390;9.754;2023-03-01T07:23:41;17.35;;;8.02;;
30533;SDS011;17318;52.390;9.754;2023-03-01T07:26:07;24.40;;;8.27;;
30533;SDS011;17318;52.390;9.754;2023-03-01T07:28:33;24.67;;;8.45;;
30533;SDS011;17318;52.390;9.754;2023-03-01T07:31:04;19.90;;;8.35;;
30533;SDS011;17318;52.390;9.754;2023-03-01T07:33:30;15.48;;;7.65;;
30533;SDS011;17318;52.390;9.754;2023-03-01T07:35:57;19.20;;;7.50;;
30533;SDS011;17318;52.390;9.754;2023-03-01T07:38:27;18.27;;;8.07;;
30533;SDS011;17318;52.390;9.754;2023-03-01T07:40:54;21.52;;;8.60;;
30533;SDS011;17318;52.390;9.754;2023-03-01T07:43:23;19.83;;;7.45;;
30533;SDS011;17318;52.390;9.754;2023-03-01T07:45:49;17.70;;;7.95;;
30533;SDS011;17318;52.390;9.754;2023-03-01T07:48:15;26.92;;;10.25;;
30533;SDS011;17318;52.390;9.754;2023-03-01T07:50:40;21.98;;;8.30;;
30533;SDS011;17318;52.390;9.754;2023-03-01T07:53:06;17.10;;;7.50;;
30533;SDS011;17318;52.390;9.754;2023-03-01T07:55:31;18.88;;;7.65;;
30533;SDS011;17318;52.390;9.754;2023-03-01T07:57:57;21.27;;;8.30;;
30533;SDS011;17318;52.390;9.754;2023-03-01T08:00:23;16.58;;;7.20;;
30533;SDS011;17318;52.390;9.754;2023-03-01T08:02:48;14.38;;;7.43;;
30533;SDS011;17318;52.390;9.754;2023-03-01T08:05:14;15.73;;;6.95;;
30533;SDS011;17318;52.390;9.754;2023-03-01T08:07:40;18.10;;;7.80;;
30533;SDS011;17318;52.390;9.754;2023-03-01T08:10:06;22.77;;;8.20;;
30533;SDS011;17318;52.390;9.754;2023-03-01T08:12:32;14.98;;;7.05;;
30533;SDS011;17318;52.390;9.754;2023-03-01T08:14:57;17.58;;;7.85;;
30533;SDS011;17318;52.390;9.754;2023-03-01T08:17:23;24.27;;;9.30;;
30533;SDS011;17318;52.390;9.754;2023-03-01T08:19:49;88.57;;;24.98;;
30533;SDS011;17318;52.390;9.754;2023-03-01T08:22:14;59.67;;;20.60;;
30533;SDS011;17318;52.390;9.754;2023-03-01T08:24:40;25.80;;;8.82;;
30533;SDS011;17318;52.390;9.754;2023-03-01T08:27:06;16.70;;;7.20;;
30533;SDS011;17318;52.390;9.754;2023-03-01T08:29:32;21.90;;;10.35;;
30533;SDS011;17318;52.390;9.754;2023-03-01T08:31:58;20.05;;;8.57;;
30533;SDS011;17318;52.390;9.754;2023-03-01T08:34:24;14.20;;;7.25;;
30533;SDS011;17318;52.390;9.754;2023-03-01T08:36:50;23.48;;;7.07;;
30533;SDS011;17318;52.390;9.754;2023-03-01T08:39:17;15.20;;;7.30;;
30533;SDS011;17318;52.390;9.754;2023-03-01T08:41:44;17.95;;;6.75;;
30533;SDS011;17318;52.390;9.754;2023-03-01T08:44:11;16.38;;;7.35;;
30533;SDS011;17318;52.390;9.754;2023-03-01T08:46:39;15.33;;;7.17;;
30533;SDS011;17318;52.390;9.754;2023-03-01T08:49:06;14.20;;;5.60;;
30533;SDS011;17318;52.390;9.754;2023-03-01T08:51:34;19.77;;;5.50;;
30533;SDS011;17318;52.390;9.754;2023-03-01T08:54:20;10.88;;;5.47;;
30533;SDS011;17318;52.390;9.754;2023-03-01T08:56:46;13.05;;;5.72;;
30533;SDS011;17318;52.390;9.754;2023-03-01T08:59:13;16.27;;;6.47;;
30533;SDS011;17318;52.390;9.754;2023-03-01T09:01:40;16.42;;;6.47;;
30533;SDS011;17318;52.390;9.754;2023-03-01T09:04:08;15.43;;;5.13;;
30533;SDS011;17318;52.390;9.754;2023-03-01T09:06:34;12.10;;;5.68;;
30533;SDS011;17318;52.390;9.754;2023-03-01T09:09:00;10.13;;;5.22;;
30533;SDS011;17318;52.390;9.754;2023-03-01T09:11:27;9.53;;;5.07;;
30533;SDS011;17318;52.390;9.754;2023-03-01T09:13:54;12.20;;;4.63;;
30533;SDS011;17318;52.390;9.754;2023-03-01T09:16:20;8.63;;;4.75;;
30533;SDS011;17318;52.390;9.754;2023-03-01T09:18:50;14.15;;;5.15;;
30533;SDS011;17318;52.390;9.754;2023-03-01T09:21:19;13.57;;;4.85;;
30533;SDS011;17318;52.390;9.754;2023-03-01T09:23:46;15.10;;;5.03;;
30533;SDS011;17318;52.390;9.754;2023-03-01T09:26:16;11.80;;;5.03;;
30533;SDS011;17318;52.390;9.754;2023-03-01T09:28:44;9.20;;;4.57;;
30533;SDS011;17318;52.390;9.754;2023-03-01T09:31:11;10.25;;;4.55;;
30533;SDS011;17318;52.390;9.754;2023-03-01T09:33:40;10.07;;;4.50;;
30533;SDS011;17318;52.390;9.754;2023-03-01T09:36:07;7.45;;;4.20;;
30533;SDS011;17318;52.390;9.754;2023-03-01T09:38:37;9.73;;;4.05;;
30533;SDS011;17318;52.390;9.754;2023-03-01T09:41:09;7.82;;;4.15;;
30533;SDS011;17318;52.390;9.754;2023-03-01T09:46:13;11.02;;;5.13;;
30533;SDS011;17318;52.390;9.754;2023-03-01T09:48:44;9.10;;;5.18;;
30533;SDS011;17318;52.390;9.754;2023-03-01T09:51:19;7.38;;;4.13;;
30533;SDS011;17318;52.390;9.754;2023-03-01T09:53:51;8.05;;;4.70;;
30533;SDS011;17318;52.390;9.754;2023-03-01T09:58:49;8.38;;;4.30;;
30533;SDS011;17318;52.390;9.754;2023-03-01T10:09:37;9.88;;;4.80;;
30533;SDS011;17318;52.390;9.754;2023-03-01T10:12:15;9.60;;;5.82;;
30533;SDS011;17318;52.390;9.754;2023-03-01T10:15:02;10.57;;;4.95;;
30533;SDS011;17318;52.390;9.754;2023-03-01T10:17:44;7.45;;;3.97;;
30533;SDS011;17318;52.390;9.754;2023-03-01T10:20:25;7.25;;;3.80;;
30533;SDS011;17318;52.390;9.754;2023-03-01T10:22:55;7.97;;;4.20;;
30533;SDS011;17318;52.390;9.754;2023-03-01T10:25:36;6.75;;;4.40;;
30533;SDS011;17318;52.390;9.754;2023-03-01T10:28:16;8.02;;;4.93;;
30533;SDS011;17318;52.390;9.754;2023-03-01T10:30:49;7.22;;;3.85;;
30533;SDS011;17318;52.390;9.754;2023-03-01T10:33:17;8.68;;;4.13;;
30533;SDS011;17318;52.390;9.754;2023-03-01T10:35:48;7.50;;;4.40;;
30533;SDS011;17318;52.390;9.754;2023-03-01T10:38:14;7.78;;;4.10;;
30533;SDS011;17318;52.390;9.754;2023-03-01T10:40:52;12.43;;;6.13;;
30533;SDS011;17318;52.390;9.754;2023-03-01T10:43:20;9.60;;;4.72;;
30533;SDS011;17318;52.390;9.754;2023-03-01T10:45:46;7.72;;;4.43;;
30533;SDS011;17318;52.390;9.754;2023-03-01T10:48:22;10.00;;;5.05;;
30533;SDS011;17318;52.390;9.754;2023-03-01T10:51:14;5.95;;;3.80;;
30533;SDS011;17318;52.390;9.754;2023-03-01T10:53:42;10.05;;;4.28;;
30533;SDS011;17318;52.390;9.754;2023-03-01T10:56:13;11.30;;;4.85;;
30533;SDS011;17318;52.390;9.754;2023-03-01T10:59:19;8.90;;;3.13;;
30533;SDS011;17318;52.390;9.754;2023-03-01T11:01:44;11.95;;;3.80;;
30533;SDS011;17318;52.390;9.754;2023-03-01T11:04:11;6.22;;;3.35;;
30533;SDS011;17318;52.390;9.754;2023-03-01T11:06:39;5.93;;;3.55;;
30533;SDS011;17318;52.390;9.754;2023-03-01T11:11:40;6.65;;;3.78;;
30533;SDS011;17318;52.390;9.754;2023-03-01T11:14:07;6.95;;;3.58;;
30533;SDS011;17318;52.390;9.754;2023-03-01T11:16:44;11.32;;;4.95;;
30533;SDS011;17318;52.390;9.754;2023-03-01T11:24:15;6.82;;;3.47;;
30533;SDS011;17318;52.390;9.754;2023-03-01T11:26:47;7.95;;;3.47;;
30533;SDS011;17318;52.390;9.754;2023-03-01T11:29:26;5.82;;;3.08;;
30533;SDS011;17318;52.390;9.754;2023-03-01T11:31:58;8.40;;;3.28;;
30533;SDS011;17318;52.390;9.754;2023-03-01T11:34:38;4.22;;;2.83;;
30533;SDS011;17318;52.390;9.754;2023-03-01T11:37:10;5.47;;;3.00;;
30533;SDS011;17318;52.390;9.754;2023-03-01T11:39:58;9.80;;;4.32;;
30533;SDS011;17318;52.390;9.754;2023-03-01T11:42:29;5.85;;;3.20;;
30533;SDS011;17318;52.390;9.754;2023-03-01T11:45:08;5.90;;;2.83;;
30533;SDS011;17318;52.390;9.754;2023-03-01T11:50:28;4.47;;;3.05;;
30533;SDS011;17318;52.390;9.754;2023-03-01T12:01:55;5.95;;;3.15;;
30533;SDS011;17318;52.390;9.754;2023-03-01T12:07:19;4.60;;;2.90;;
30533;SDS011;17318;52.390;9.754;2023-03-01T12:18:07;5.32;;;2.97;;
30533;SDS011;17318;52.390;9.754;2023-03-01T12:23:39;5.50;;;2.67;;
30533;SDS011;17318;52.390;9.754;2023-03-01T12:26:18;4.40;;;2.70;;
30533;SDS011;17318;52.390;9.754;2023-03-01T12:34:25;9.90;;;3.20;;
30533;SDS011;17318;52.390;9.754;2023-03-01T12:36:58;4.70;;;2.65;;
30533;SDS011;17318;52.390;9.754;2023-03-01T12:42:05;4.47;;;2.70;;
30533;SDS011;17318;52.390;9.754;2023-03-01T12:50:37;5.85;;;2.75;;
30533;SDS011;17318;52.390;9.754;2023-03-01T12:53:22;9.85;;;3.58;;
30533;SDS011;17318;52.390;9.754;2023-03-01T12:55:49;19.80;;;9.57;;
30533;SDS011;17318;52.390;9.754;2023-03-01T13:04:06;6.88;;;3.40;;
30533;SDS011;17318;52.390;9.754;2023-03-01T13:12:02;7.13;;;3.30;;
30533;SDS011;17318;52.390;9.754;2023-03-01T13:16:57;5.57;;;3.22;;
30533;SDS011;17318;52.390;9.754;2023-03-01T13:19:23;5.85;;;3.35;;
30533;SDS011;17318;52.390;9.754;2023-03-01T13:21:52;5.93;;;3.13;;
30533;SDS011;17318;52.390;9.754;2023-03-01T13:24:23;6.50;;;2.97;;
30533;SDS011;17318;52.390;9.754;2023-03-01T13:29:43;7.38;;;2.83;;
30533;SDS011;17318;52.390;9.754;2023-03-01T13:37:27;10.50;;;3.88;;
30533;SDS011;17318;52.390;9.754;2023-03-01T13:39:55;6.85;;;3.40;;
30533;SDS011;17318;52.390;9.754;2023-03-01T13:42:41;6.35;;;3.17;;
30533;SDS011;17318;52.390;9.754;2023-03-01T13:48:08;9.45;;;3.65;;
30533;SDS011;17318;52.390;9.754;2023-03-01T13:50:50;5.18;;;3.13;;
30533;SDS011;17318;52.390;9.754;2023-03-01T13:53:24;5.65;;;2.60;;
30533;SDS011;17318;52.390;9.754;2023-03-01T13:56:16;11.35;;;3.13;;
30533;SDS011;17318;52.390;9.754;2023-03-01T13:58:48;7.32;;;3.47;;
30533;SDS011;17318;52.390;9.754;2023-03-01T14:01:24;15.38;;;6.95;;
30533;SDS011;17318;52.390;9.754;2023-03-01T14:03:55;13.25;;;7.55;;
30533;SDS011;17318;52.390;9.754;2023-03-01T14:06:22;11.80;;;6.68;;
30533;SDS011;17318;52.390;9.754;2023-03-01T14:08:50;8.77;;;2.67;;
30533;SDS011;17318;52.390;9.754;2023-03-01T14:17:08;7.60;;;2.72;;
30533;SDS011;17318;52.390;9.754;2023-03-01T14:19:43;5.43;;;2.45;;
30533;SDS011;17318;52.390;9.754;2023-03-01T14:22:22;7.60;;;2.45;;
30533;SDS011;17318;52.390;9.754;2023-03-01T14:25:00;6.18;;;2.40;;
30533;SDS011;17318;52.390;9.754;2023-03-01T14:27:28;6.50;;;3.20;;
30533;SDS011;17318;52.390;9.754;2023-03-01T14:29:59;5.50;;;2.50;;
30533;SDS011;17318;52.390;9.754;2023-03-01T14:32:30;7.30;;;3.50;;
30533;SDS011;17318;52.390;9.754;2023-03-01T14:34:57;4.60;;;2.60;;
30533;SDS011;17318;52.390;9.754;2023-03-01T14:37:29;6.82;;;2.95;;
30533;SDS011;17318;52.390;9.754;2023-03-01T14:39:57;5.75;;;2.60;;
30533;SDS011;17318;52.390;9.754;2023-03-01T14:42:25;6.10;;;2.70;;
30533;SDS011;17318;52.390;9.754;2023-03-01T14:44:54;4.55;;;2.50;;
30533;SDS011;17318;52.390;9.754;2023-03-01T14:49:49;4.63;;;2.47;;
30533;SDS011;17318;52.390;9.754;2023-03-01T14:52:21;4.97;;;2.20;;
30533;SDS011;17318;52.390;9.754;2023-03-01T14:54:54;4.85;;;2.13;;
30533;SDS011;17318;52.390;9.754;2023-03-01T14:59:47;8.30;;;2.40;;
30533;SDS011;17318;52.390;9.754;2023-03-01T15:02:16;5.32;;;2.20;;
30533;SDS011;17318;52.390;9.754;2023-03-01T15:04:51;6.57;;;1.95;;
30533;SDS011;17318;52.390;9.754;2023-03-01T15:07:21;6.88;;;2.35;;
30533;SDS011;17318;52.390;9.754;2023-03-01T15:09:51;3.03;;;1.98;;
30533;SDS011;17318;52.390;9.754;2023-03-01T15:12:39;4.93;;;2.20;;
30533;SDS011;17318;52.390;9.754;2023-03-01T15:17:54;10.02;;;3.72;;
30533;SDS011;17318;52.390;9.754;2023-03-01T15:20:23;4.43;;;2.22;;
30533;SDS011;17318;52.390;9.754;2023-03-01T15:22:51;6.93;;;2.88;;
30533;SDS011;17318;52.390;9.754;2023-03-01T15:25:19;4.18;;;2.70;;
30533;SDS011;17318;52.390;9.754;2023-03-01T15:27:48;4.95;;;2.40;;
30533;SDS011;17318;52.390;9.754;2023-03-01T15:30:21;3.45;;;2.10;;
30533;SDS011;17318;52.390;9.754;2023-03-01T15:33:15;8.90;;;3.80;;
30533;SDS011;17318;52.390;9.754;2023-03-01T15:35:44;5.80;;;2.40;;
30533;SDS011;17318;52.390;9.754;2023-03-01T15:38:25;11.00;;;3.22;;
30533;SDS011;17318;52.390;9.754;2023-03-01T15:40:53;5.07;;;2.72;;
30533;SDS011;17318;52.390;9.754;2023-03-01T15:46:04;8.13;;;2.50;;
30533;SDS011;17318;52.390;9.754;2023-03-01T15:48:29;7.03;;;2.50;;
30533;SDS011;17318;52.390;9.754;2023-03-01T15:50:58;4.25;;;2.53;;
30533;SDS011;17318;52.390;9.754;2023-03-01T15:53:26;5.53;;;2.70;;
30533;SDS011;17318;52.390;9.754;2023-03-01T15:55:53;4.68;;;2.60;;
30533;SDS011;17318;52.390;9.754;2023-03-01T15:58:20;7.30;;;2.45;;
30533;SDS011;17318;52.390;9.754;2023-03-01T16:03:13;5.70;;;2.55;;
30533;SDS011;17318;52.390;9.754;2023-03-01T16:05:46;8.25;;;2.83;;
30533;SDS011;17318;52.390;9.754;2023-03-01T16:08:13;7.13;;;2.60;;
30533;SDS011;17318;52.390;9.754;2023-03-01T16:10:39;6.70;;;2.40;;
30533;SDS011;17318;52.390;9.754;2023-03-01T16:13:09;4.00;;;2.55;;
30533;SDS011;17318;52.390;9.754;2023-03-01T16:15:35;4.25;;;2.50;;
30533;SDS011;17318;52.390;9.754;2023-03-01T16:18:01;4.75;;;2.30;;
30533;SDS011;17318;52.390;9.754;2023-03-01T16:20:28;6.78;;;2.88;;
30533;SDS011;17318;52.390;9.754;2023-03-01T16:22:54;8.90;;;2.75;;
30533;SDS011;17318;52.390;9.754;2023-03-01T16:25:25;4.68;;;2.45;;
30533;SDS011;17318;52.390;9.754;2023-03-01T16:27:50;7.75;;;3.40;;
30533;SDS011;17318;52.390;9.754;2023-03-01T16:30:18;3.83;;;1.92;;
30533;SDS011;17318;52.390;9.754;2023-03-01T16:32:45;5.97;;;2.50;;
30533;SDS011;17318;52.390;9.754;2023-03-01T16:35:13;7.32;;;2.30;;
30533;SDS011;17318;52.390;9.754;2023-03-01T16:37:41;7.30;;;2.67;;
30533;SDS011;17318;52.390;9.754;2023-03-01T16:40:14;8.55;;;2.65;;
30533;SDS011;17318;52.390;9.754;2023-03-01T16:42:44;5.27;;;2.40;;
30533;SDS011;17318;52.390;9.754;2023-03-01T16:45:09;5.93;;;2.58;;
30533;SDS011;17318;52.390;9.754;2023-03-01T16:47:36;3.67;;;2.10;;